sensor_id;sensor_type;location;lat;lon;timestamp;P1;durP1;ratioP1;P2;durP2;ratioP2
77775;SDS011;66965;43.328;6.668;2023-02-18T00:01:39;11.27;;;8.07;;
77775;SDS011;66965;43.328;6.668;2023-02-18T00:04:05;12.80;;;8.27;;
77775;SDS011;66965;43.328;6.668;2023-02-18T00:06:33;12.15;;;8.20;;
77775;SDS011;66965;43.328;6.668;2023-02-18T00:09:00;13.65;;;8.75;;
77775;SDS011;66965;43.328;6.668;2023-02-18T00:11:28;14.10;;;8.48;;
77775;SDS011;66965;43.328;6.668;2023-02-18T00:13:56;12.75;;;8.90;;
77775;SDS011;66965;43.328;6.668;2023-02-18T00:16:24;12.50;;;7.88;;
77775;SDS011;66965;43.328;6.668;2023-02-18T00:18:53;15.05;;;9.00;;
77775;SDS011;66965;43.328;6.668;2023-02-18T00:21:19;12.02;;;8.25;;
77775;SDS011;66965;43.328;6.668;2023-02-18T00:23:45;12.07;;;7.63;;
77775;SDS011;66965;43.328;6.668;2023-02-18T00:26:12;15.38;;;9.27;;
77775;SDS011;66965;43.328;6.668;2023-02-18T00:28:39;15.70;;;10.90;;
77775;SDS011;66965;43.328;6.668;2023-02-18T00:31:08;16.77;;;10.35;;
77775;SDS011;66965;43.328;6.668;2023-02-18T00:33:36;14.38;;;10.35;;
77775;SDS011;66965;43.328;6.668;2023-02-18T00:36:02;17.70;;;11.77;;
77775;SDS011;66965;43.328;6.668;2023-02-18T00:38:29;15.15;;;10.32;;
77775;SDS011;66965;43.328;6.668;2023-02-18T00:40:54;17.33;;;10.98;;
77775;SDS011;66965;43.328;6.668;2023-02-18T00:43:20;17.10;;;9.90;;
77775;SDS011;66965;43.328;6.668;2023-02-18T00:45:45;12.30;;;9.38;;
77775;SDS011;66965;43.328;6.668;2023-02-18T00:48:11;13.77;;;9.20;;
77775;SDS011;66965;43.328;6.668;2023-02-18T00:50:36;18.83;;;12.00;;
77775;SDS011;66965;43.328;6.668;2023-02-18T00:53:02;14.98;;;9.65;;
77775;SDS011;66965;43.328;6.668;2023-02-18T00:55:27;14.63;;;10.25;;
77775;SDS011;66965;43.328;6.668;2023-02-18T00:57:53;17.27;;;10.10;;
77775;SDS011;66965;43.328;6.668;2023-02-18T01:00:18;14.18;;;9.07;;
77775;SDS011;66965;43.328;6.668;2023-02-18T01:02:44;14.95;;;10.68;;
77775;SDS011;66965;43.328;6.668;2023-02-18T01:05:09;17.63;;;10.45;;
77775;SDS011;66965;43.328;6.668;2023-02-18T01:07:35;13.73;;;9.30;;
77775;SDS011;66965;43.328;6.668;2023-02-18T01:10:00;12.68;;;9.05;;
77775;SDS011;66965;43.328;6.668;2023-02-18T01:12:26;14.02;;;9.18;;
77775;SDS011;66965;43.328;6.668;2023-02-18T01:14:51;16.25;;;9.27;;
77775;SDS011;66965;43.328;6.668;2023-02-18T01:17:17;14.18;;;9.07;;
77775;SDS011;66965;43.328;6.668;2023-02-18T01:19:42;13.57;;;9.07;;
77775;SDS011;66965;43.328;6.668;2023-02-18T01:22:08;15.23;;;10.65;;
77775;SDS011;66965;43.328;6.668;2023-02-18T01:24:33;15.20;;;9.93;;
77775;SDS011;66965;43.328;6.668;2023-02-18T01:26:59;18.10;;;10.32;;
77775;SDS011;66965;43.328;6.668;2023-02-18T01:29:24;12.95;;;9.48;;
77775;SDS011;66965;43.328;6.668;2023-02-18T01:31:50;15.32;;;10.07;;
77775;SDS011;66965;43.328;6.668;2023-02-18T01:34:15;13.52;;;9.10;;
77775;SDS011;66965;43.328;6.668;2023-02-18T01:36:41;14.30;;;9.80;;
77775;SDS011;66965;43.328;6.668;2023-02-18T01:39:06;13.80;;;9.52;;
77775;SDS011;66965;43.328;6.668;2023-02-18T01:41:31;13.80;;;9.35;;
77775;SDS011;66965;43.328;6.668;2023-02-18T01:44:14;11.55;;;8.75;;
77775;SDS011;66965;43.328;6.668;2023-02-18T01:46:42;14.20;;;9.02;;
77775;SDS011;66965;43.328;6.668;2023-02-18T01:49:08;13.38;;;9.65;;
77775;SDS011;66965;43.328;6.668;2023-02-18T01:51:37;17.65;;;10.30;;
77775;SDS011;66965;43.328;6.668;2023-02-18T01:59:30;15.18;;;9.48;;
77775;SDS011;66965;43.328;6.668;2023-02-18T02:02:01;14.10;;;9.32;;
77775;SDS011;66965;43.328;6.668;2023-02-18T02:04:26;13.13;;;8.98;;
77775;SDS011;66965;43.328;6.668;2023-02-18T02:06:52;13.80;;;9.32;;
77775;SDS011;66965;43.328;6.668;2023-02-18T02:09:17;14.10;;;8.88;;
77775;SDS011;66965;43.328;6.668;2023-02-18T02:11:55;14.00;;;8.95;;
77775;SDS011;66965;43.328;6.668;2023-02-18T02:33:03;15.85;;;9.60;;
77775;SDS011;66965;43.328;6.668;2023-02-18T02:39:07;16.63;;;10.30;;
77775;SDS011;66965;43.328;6.668;2023-02-18T02:41:41;16.58;;;10.90;;
77775;SDS011;66965;43.328;6.668;2023-02-18T02:44:29;18.58;;;10.90;;
77775;SDS011;66965;43.328;6.668;2023-02-18T02:49:57;17.00;;;10.40;;
77775;SDS011;66965;43.328;6.668;2023-02-18T02:52:37;16.73;;;11.13;;
77775;SDS011;66965;43.328;6.668;2023-02-18T02:55:09;18.25;;;10.50;;
77775;SDS011;66965;43.328;6.668;2023-02-18T03:00:03;15.10;;;9.60;;
77775;SDS011;66965;43.328;6.668;2023-02-18T03:11:08;14.32;;;9.25;;
77775;SDS011;66965;43.328;6.668;2023-02-18T03:19:10;13.45;;;8.98;;
77775;SDS011;66965;43.328;6.668;2023-02-18T03:21:44;14.32;;;9.23;;
77775;SDS011;66965;43.328;6.668;2023-02-18T03:24:26;14.20;;;9.27;;
77775;SDS011;66965;43.328;6.668;2023-02-18T03:26:54;14.88;;;9.27;;
77775;SDS011;66965;43.328;6.668;2023-02-18T03:29:22;16.92;;;9.25;;
77775;SDS011;66965;43.328;6.668;2023-02-18T03:31:52;15.27;;;9.45;;
77775;SDS011;66965;43.328;6.668;2023-02-18T03:34:22;15.82;;;10.10;;
77775;SDS011;66965;43.328;6.668;2023-02-18T03:36:53;13.88;;;9.80;;
77775;SDS011;66965;43.328;6.668;2023-02-18T03:39:20;14.85;;;10.27;;
77775;SDS011;66965;43.328;6.668;2023-02-18T03:41:47;13.30;;;9.52;;
77775;SDS011;66965;43.328;6.668;2023-02-18T03:44:13;15.18;;;9.70;;
77775;SDS011;66965;43.328;6.668;2023-02-18T03:46:40;14.05;;;9.20;;
77775;SDS011;66965;43.328;6.668;2023-02-18T03:49:07;13.07;;;9.27;;
77775;SDS011;66965;43.328;6.668;2023-02-18T03:51:34;17.83;;;10.88;;
77775;SDS011;66965;43.328;6.668;2023-02-18T03:53:59;17.73;;;10.13;;
77775;SDS011;66965;43.328;6.668;2023-02-18T03:56:25;13.35;;;9.85;;
77775;SDS011;66965;43.328;6.668;2023-02-18T03:58:50;14.68;;;10.25;;
77775;SDS011;66965;43.328;6.668;2023-02-18T04:01:16;14.82;;;9.95;;
77775;SDS011;66965;43.328;6.668;2023-02-18T04:03:42;13.98;;;9.20;;
77775;SDS011;66965;43.328;6.668;2023-02-18T04:06:07;13.18;;;8.70;;
77775;SDS011;66965;43.328;6.668;2023-02-18T04:08:34;14.05;;;9.25;;
77775;SDS011;66965;43.328;6.668;2023-02-18T04:11:00;13.27;;;9.73;;
77775;SDS011;66965;43.328;6.668;2023-02-18T04:13:26;14.25;;;9.07;;
77775;SDS011;66965;43.328;6.668;2023-02-18T04:15:51;14.48;;;9.02;;
77775;SDS011;66965;43.328;6.668;2023-02-18T04:18:17;14.27;;;9.82;;
77775;SDS011;66965;43.328;6.668;2023-02-18T04:20:43;15.50;;;10.02;;
77775;SDS011;66965;43.328;6.668;2023-02-18T04:23:10;14.80;;;11.10;;
77775;SDS011;66965;43.328;6.668;2023-02-18T04:25:36;15.07;;;9.75;;
77775;SDS011;66965;43.328;6.668;2023-02-18T04:28:02;15.55;;;9.85;;
77775;SDS011;66965;43.328;6.668;2023-02-18T04:30:27;14.75;;;10.13;;
77775;SDS011;66965;43.328;6.668;2023-02-18T04:32:53;15.85;;;10.73;;
77775;SDS011;66965;43.328;6.668;2023-02-18T04:35:18;14.40;;;10.90;;
77775;SDS011;66965;43.328;6.668;2023-02-18T04:37:44;16.75;;;11.88;;
77775;SDS011;66965;43.328;6.668;2023-02-18T04:40:09;17.30;;;11.20;;
77775;SDS011;66965;43.328;6.668;2023-02-18T04:42:35;15.68;;;10.43;;
77775;SDS011;66965;43.328;6.668;2023-02-18T04:45:01;16.25;;;10.13;;
77775;SDS011;66965;43.328;6.668;2023-02-18T04:47:27;14.80;;;10.35;;
77775;SDS011;66965;43.328;6.668;2023-02-18T04:49:52;15.68;;;9.88;;
77775;SDS011;66965;43.328;6.668;2023-02-18T04:52:18;12.77;;;8.63;;
77775;SDS011;66965;43.328;6.668;2023-02-18T04:54:43;13.35;;;10.02;;
77775;SDS011;66965;43.328;6.668;2023-02-18T04:57:09;14.90;;;10.32;;
77775;SDS011;66965;43.328;6.668;2023-02-18T04:59:35;15.18;;;9.85;;
77775;SDS011;66965;43.328;6.668;2023-02-18T05:02:00;14.10;;;9.45;;
77775;SDS011;66965;43.328;6.668;2023-02-18T05:04:26;13.98;;;8.98;;
77775;SDS011;66965;43.328;6.668;2023-02-18T05:06:51;14.68;;;9.60;;
77775;SDS011;66965;43.328;6.668;2023-02-18T05:09:17;14.75;;;9.55;;
77775;SDS011;66965;43.328;6.668;2023-02-18T05:11:42;12.60;;;9.43;;
77775;SDS011;66965;43.328;6.668;2023-02-18T05:14:08;14.05;;;9.48;;
77775;SDS011;66965;43.328;6.668;2023-02-18T05:16:33;11.90;;;8.75;;
77775;SDS011;66965;43.328;6.668;2023-02-18T05:18:59;14.02;;;9.55;;
77775;SDS011;66965;43.328;6.668;2023-02-18T05:21:24;16.75;;;9.68;;
77775;SDS011;66965;43.328;6.668;2023-02-18T05:23:50;15.02;;;10.27;;
77775;SDS011;66965;43.328;6.668;2023-02-18T05:26:16;11.77;;;8.98;;
77775;SDS011;66965;43.328;6.668;2023-02-18T05:28:41;13.30;;;9.75;;
77775;SDS011;66965;43.328;6.668;2023-02-18T05:31:07;14.43;;;9.80;;
77775;SDS011;66965;43.328;6.668;2023-02-18T05:33:32;16.48;;;10.23;;
77775;SDS011;66965;43.328;6.668;2023-02-18T05:35:58;16.13;;;9.77;;
77775;SDS011;66965;43.328;6.668;2023-02-18T05:38:23;15.23;;;10.93;;
77775;SDS011;66965;43.328;6.668;2023-02-18T05:40:49;14.10;;;9.95;;
77775;SDS011;66965;43.328;6.668;2023-02-18T05:43:14;13.60;;;9.85;;
77775;SDS011;66965;43.328;6.668;2023-02-18T05:45:40;13.23;;;9.40;;
77775;SDS011;66965;43.328;6.668;2023-02-18T05:48:05;13.93;;;10.20;;
77775;SDS011;66965;43.328;6.668;2023-02-18T05:50:31;17.20;;;11.57;;
77775;SDS011;66965;43.328;6.668;2023-02-18T05:52:57;20.83;;;10.65;;
77775;SDS011;66965;43.328;6.668;2023-02-18T05:55:22;17.70;;;10.55;;
77775;SDS011;66965;43.328;6.668;2023-02-18T05:57:48;14.93;;;10.05;;
77775;SDS011;66965;43.328;6.668;2023-02-18T06:00:14;15.90;;;10.23;;
77775;SDS011;66965;43.328;6.668;2023-02-18T06:02:40;20.42;;;13.25;;
77775;SDS011;66965;43.328;6.668;2023-02-18T06:05:06;17.95;;;12.15;;
77775;SDS011;66965;43.328;6.668;2023-02-18T06:07:31;15.85;;;10.98;;
77775;SDS011;66965;43.328;6.668;2023-02-18T06:09:57;17.65;;;11.73;;
77775;SDS011;66965;43.328;6.668;2023-02-18T06:12:22;17.58;;;12.00;;
77775;SDS011;66965;43.328;6.668;2023-02-18T06:14:48;18.45;;;12.27;;
77775;SDS011;66965;43.328;6.668;2023-02-18T06:17:13;17.95;;;12.25;;
77775;SDS011;66965;43.328;6.668;2023-02-18T06:19:40;18.42;;;11.98;;
77775;SDS011;66965;43.328;6.668;2023-02-18T06:22:06;18.38;;;11.38;;
77775;SDS011;66965;43.328;6.668;2023-02-18T06:24:32;19.33;;;12.25;;
77775;SDS011;66965;43.328;6.668;2023-02-18T06:26:57;22.38;;;14.27;;
77775;SDS011;66965;43.328;6.668;2023-02-18T06:29:23;19.95;;;13.30;;
77775;SDS011;66965;43.328;6.668;2023-02-18T06:31:49;18.67;;;11.63;;
77775;SDS011;66965;43.328;6.668;2023-02-18T06:34:15;15.63;;;11.98;;
77775;SDS011;66965;43.328;6.668;2023-02-18T06:36:40;17.15;;;12.07;;
77775;SDS011;66965;43.328;6.668;2023-02-18T06:39:06;15.90;;;11.73;;
77775;SDS011;66965;43.328;6.668;2023-02-18T06:41:32;17.70;;;12.40;;
77775;SDS011;66965;43.328;6.668;2023-02-18T06:43:58;18.73;;;12.88;;
77775;SDS011;66965;43.328;6.668;2023-02-18T06:46:23;19.67;;;12.45;;
77775;SDS011;66965;43.328;6.668;2023-02-18T06:48:49;19.23;;;12.27;;
77775;SDS011;66965;43.328;6.668;2023-02-18T06:51:14;19.38;;;13.02;;
77775;SDS011;66965;43.328;6.668;2023-02-18T06:53:41;21.45;;;13.07;;
77775;SDS011;66965;43.328;6.668;2023-02-18T06:56:08;28.45;;;16.40;;
77775;SDS011;66965;43.328;6.668;2023-02-18T06:58:33;21.67;;;15.50;;
77775;SDS011;66965;43.328;6.668;2023-02-18T07:00:59;24.67;;;16.63;;
77775;SDS011;66965;43.328;6.668;2023-02-18T07:03:24;25.83;;;16.42;;
77775;SDS011;66965;43.328;6.668;2023-02-18T07:05:50;24.45;;;17.17;;
77775;SDS011;66965;43.328;6.668;2023-02-18T07:08:15;22.75;;;16.38;;
77775;SDS011;66965;43.328;6.668;2023-02-18T07:10:41;21.42;;;15.07;;
77775;SDS011;66965;43.328;6.668;2023-02-18T07:13:07;17.98;;;11.93;;
77775;SDS011;66965;43.328;6.668;2023-02-18T07:15:32;17.83;;;13.57;;
77775;SDS011;66965;43.328;6.668;2023-02-18T07:17:58;20.98;;;17.67;;
77775;SDS011;66965;43.328;6.668;2023-02-18T07:20:23;22.95;;;15.60;;
77775;SDS011;66965;43.328;6.668;2023-02-18T07:22:50;18.92;;;15.20;;
77775;SDS011;66965;43.328;6.668;2023-02-18T07:25:16;20.33;;;15.65;;
77775;SDS011;66965;43.328;6.668;2023-02-18T07:27:41;16.00;;;13.15;;
77775;SDS011;66965;43.328;6.668;2023-02-18T07:30:07;18.40;;;13.73;;
77775;SDS011;66965;43.328;6.668;2023-02-18T07:32:33;18.60;;;12.43;;
77775;SDS011;66965;43.328;6.668;2023-02-18T07:34:59;17.20;;;13.30;;
77775;SDS011;66965;43.328;6.668;2023-02-18T07:37:24;19.50;;;13.75;;
77775;SDS011;66965;43.328;6.668;2023-02-18T07:39:49;18.10;;;13.65;;
77775;SDS011;66965;43.328;6.668;2023-02-18T07:42:15;21.67;;;13.32;;
77775;SDS011;66965;43.328;6.668;2023-02-18T07:44:40;20.52;;;13.05;;
77775;SDS011;66965;43.328;6.668;2023-02-18T07:47:06;16.52;;;12.88;;
77775;SDS011;66965;43.328;6.668;2023-02-18T07:49:34;20.45;;;12.30;;
77775;SDS011;66965;43.328;6.668;2023-02-18T07:52:00;22.02;;;15.38;;
77775;SDS011;66965;43.328;6.668;2023-02-18T07:54:26;19.38;;;14.05;;
77775;SDS011;66965;43.328;6.668;2023-02-18T07:56:52;16.75;;;12.68;;
77775;SDS011;66965;43.328;6.668;2023-02-18T07:59:19;18.65;;;13.05;;
77775;SDS011;66965;43.328;6.668;2023-02-18T08:01:44;18.05;;;13.27;;
77775;SDS011;66965;43.328;6.668;2023-02-18T08:04:10;17.50;;;12.48;;
77775;SDS011;66965;43.328;6.668;2023-02-18T08:06:37;17.92;;;12.55;;
77775;SDS011;66965;43.328;6.668;2023-02-18T08:09:07;16.55;;;12.32;;
77775;SDS011;66965;43.328;6.668;2023-02-18T08:11:33;20.20;;;13.77;;
77775;SDS011;66965;43.328;6.668;2023-02-18T08:13:59;20.90;;;14.85;;
77775;SDS011;66965;43.328;6.668;2023-02-18T08:16:25;16.98;;;12.63;;
77775;SDS011;66965;43.328;6.668;2023-02-18T08:18:51;17.52;;;12.23;;
77775;SDS011;66965;43.328;6.668;2023-02-18T08:21:19;17.35;;;12.13;;
77775;SDS011;66965;43.328;6.668;2023-02-18T08:23:46;15.13;;;12.07;;
77775;SDS011;66965;43.328;6.668;2023-02-18T08:26:12;18.48;;;11.68;;
77775;SDS011;66965;43.328;6.668;2023-02-18T08:28:38;18.08;;;12.95;;
77775;SDS011;66965;43.328;6.668;2023-02-18T08:31:03;16.80;;;12.15;;
77775;SDS011;66965;43.328;6.668;2023-02-18T08:33:29;16.88;;;12.48;;
77775;SDS011;66965;43.328;6.668;2023-02-18T08:35:55;15.77;;;11.43;;
77775;SDS011;66965;43.328;6.668;2023-02-18T08:38:20;18.63;;;11.73;;
77775;SDS011;66965;43.328;6.668;2023-02-18T08:40:47;18.95;;;13.13;;
77775;SDS011;66965;43.328;6.668;2023-02-18T08:43:14;17.30;;;11.80;;
77775;SDS011;66965;43.328;6.668;2023-02-18T08:45:40;15.73;;;11.45;;
77775;SDS011;66965;43.328;6.668;2023-02-18T08:48:13;15.50;;;11.70;;
77775;SDS011;66965;43.328;6.668;2023-02-18T08:50:40;15.77;;;11.90;;
77775;SDS011;66965;43.328;6.668;2023-02-18T08:53:06;15.95;;;12.13;;
77775;SDS011;66965;43.328;6.668;2023-02-18T08:55:32;17.38;;;11.52;;
77775;SDS011;66965;43.328;6.668;2023-02-18T08:57:59;18.77;;;12.00;;
77775;SDS011;66965;43.328;6.668;2023-02-18T09:00:25;16.13;;;11.77;;
77775;SDS011;66965;43.328;6.668;2023-02-18T09:02:51;19.75;;;12.13;;
77775;SDS011;66965;43.328;6.668;2023-02-18T09:05:16;17.80;;;12.45;;
77775;SDS011;66965;43.328;6.668;2023-02-18T09:07:42;21.52;;;13.32;;
77775;SDS011;66965;43.328;6.668;2023-02-18T09:10:08;20.27;;;13.50;;
77775;SDS011;66965;43.328;6.668;2023-02-18T09:15:00;19.55;;;12.68;;
77775;SDS011;66965;43.328;6.668;2023-02-18T09:17:26;16.85;;;12.13;;
77775;SDS011;66965;43.328;6.668;2023-02-18T09:19:51;18.50;;;12.18;;
77775;SDS011;66965;43.328;6.668;2023-02-18T09:22:17;17.02;;;12.82;;
77775;SDS011;66965;43.328;6.668;2023-02-18T09:24:43;19.67;;;12.18;;
77775;SDS011;66965;43.328;6.668;2023-02-18T09:27:09;17.27;;;13.70;;
77775;SDS011;66965;43.328;6.668;2023-02-18T09:29:36;25.05;;;16.23;;
77775;SDS011;66965;43.328;6.668;2023-02-18T09:32:04;23.95;;;16.42;;
77775;SDS011;66965;43.328;6.668;2023-02-18T09:34:31;23.15;;;16.00;;
77775;SDS011;66965;43.328;6.668;2023-02-18T09:36:56;20.45;;;16.83;;
77775;SDS011;66965;43.328;6.668;2023-02-18T09:39:22;26.88;;;17.35;;
77775;SDS011;66965;43.328;6.668;2023-02-18T09:41:55;27.45;;;17.08;;
77775;SDS011;66965;43.328;6.668;2023-02-18T09:44:34;21.83;;;14.80;;
77775;SDS011;66965;43.328;6.668;2023-02-18T09:47:10;19.30;;;14.43;;
77775;SDS011;66965;43.328;6.668;2023-02-18T09:49:40;20.30;;;13.88;;
77775;SDS011;66965;43.328;6.668;2023-02-18T09:54:47;16.42;;;12.23;;
77775;SDS011;66965;43.328;6.668;2023-02-18T09:57:20;18.08;;;12.25;;
77775;SDS011;66965;43.328;6.668;2023-02-18T09:59:51;16.98;;;11.45;;
77775;SDS011;66965;43.328;6.668;2023-02-18T10:02:24;15.50;;;12.02;;
77775;SDS011;66965;43.328;6.668;2023-02-18T10:04:50;16.88;;;11.18;;
77775;SDS011;66965;43.328;6.668;2023-02-18T10:07:25;15.63;;;11.80;;
77775;SDS011;66965;43.328;6.668;2023-02-18T10:09:55;17.17;;;12.07;;
77775;SDS011;66965;43.328;6.668;2023-02-18T10:12:23;15.35;;;11.77;;
77775;SDS011;66965;43.328;6.668;2023-02-18T10:14:51;17.00;;;12.38;;
77775;SDS011;66965;43.328;6.668;2023-02-18T10:17:25;16.77;;;13.18;;
77775;SDS011;66965;43.328;6.668;2023-02-18T10:19:54;17.73;;;12.25;;
77775;SDS011;66965;43.328;6.668;2023-02-18T10:22:21;19.13;;;13.48;;
77775;SDS011;66965;43.328;6.668;2023-02-18T10:24:49;20.13;;;14.32;;
77775;SDS011;66965;43.328;6.668;2023-02-18T10:27:27;19.45;;;14.18;;
77775;SDS011;66965;43.328;6.668;2023-02-18T10:29:59;22.27;;;16.08;;
77775;SDS011;66965;43.328;6.668;2023-02-18T10:32:47;21.73;;;13.60;;
77775;SDS011;66965;43.328;6.668;2023-02-18T10:43:36;17.80;;;11.88;;
77775;SDS011;66965;43.328;6.668;2023-02-18T10:46:25;15.38;;;10.73;;
77775;SDS011;66965;43.328;6.668;2023-02-18T10:51:36;17.27;;;9.70;;
77775;SDS011;66965;43.328;6.668;2023-02-18T10:54:09;12.30;;;9.48;;
77775;SDS011;66965;43.328;6.668;2023-02-18T10:56:39;12.18;;;9.20;;
77775;SDS011;66965;43.328;6.668;2023-02-18T10:59:11;13.93;;;10.02;;
77775;SDS011;66965;43.328;6.668;2023-02-18T11:01:39;12.60;;;9.65;;
77775;SDS011;66965;43.328;6.668;2023-02-18T11:04:16;11.77;;;9.50;;
77775;SDS011;66965;43.328;6.668;2023-02-18T11:06:47;14.73;;;9.30;;
77775;SDS011;66965;43.328;6.668;2023-02-18T11:12:06;12.57;;;9.32;;
77775;SDS011;66965;43.328;6.668;2023-02-18T11:15:04;14.15;;;11.20;;
77775;SDS011;66965;43.328;6.668;2023-02-18T11:17:31;12.48;;;9.95;;
77775;SDS011;66965;43.328;6.668;2023-02-18T11:19:58;12.23;;;8.75;;
77775;SDS011;66965;43.328;6.668;2023-02-18T11:22:32;16.00;;;9.52;;
77775;SDS011;66965;43.328;6.668;2023-02-18T11:25:02;12.43;;;8.45;;
77775;SDS011;66965;43.328;6.668;2023-02-18T11:27:45;12.05;;;9.52;;
77775;SDS011;66965;43.328;6.668;2023-02-18T11:30:25;12.80;;;8.98;;
77775;SDS011;66965;43.328;6.668;2023-02-18T11:32:58;13.27;;;8.75;;
77775;SDS011;66965;43.328;6.668;2023-02-18T11:35:28;11.20;;;8.05;;
77775;SDS011;66965;43.328;6.668;2023-02-18T11:37:58;12.70;;;9.10;;
77775;SDS011;66965;43.328;6.668;2023-02-18T11:40:29;12.68;;;9.18;;
77775;SDS011;66965;43.328;6.668;2023-02-18T11:43:12;12.85;;;9.70;;
77775;SDS011;66965;43.328;6.668;2023-02-18T11:45:40;11.18;;;9.05;;
77775;SDS011;66965;43.328;6.668;2023-02-18T11:48:08;11.93;;;8.73;;
77775;SDS011;66965;43.328;6.668;2023-02-18T11:50:33;15.68;;;10.20;;
77775;SDS011;66965;43.328;6.668;2023-02-18T11:52:59;13.55;;;10.02;;
77775;SDS011;66965;43.328;6.668;2023-02-18T11:55:41;12.55;;;8.95;;
77775;SDS011;66965;43.328;6.668;2023-02-18T11:58:22;12.48;;;8.77;;
77775;SDS011;66965;43.328;6.668;2023-02-18T12:00:49;13.27;;;9.80;;
77775;SDS011;66965;43.328;6.668;2023-02-18T12:05:47;14.82;;;9.93;;
77775;SDS011;66965;43.328;6.668;2023-02-18T12:08:23;14.60;;;8.68;;
77775;SDS011;66965;43.328;6.668;2023-02-18T12:11:00;14.52;;;8.80;;
77775;SDS011;66965;43.328;6.668;2023-02-18T12:13:32;12.32;;;9.38;;
77775;SDS011;66965;43.328;6.668;2023-02-18T12:29:52;14.15;;;10.55;;
77775;SDS011;66965;43.328;6.668;2023-02-18T12:37:46;16.75;;;11.70;;
77775;SDS011;66965;43.328;6.668;2023-02-18T12:56:49;14.07;;;9.95;;
77775;SDS011;66965;43.328;6.668;2023-02-18T13:04:51;12.30;;;8.55;;
77775;SDS011;66965;43.328;6.668;2023-02-18T13:12:40;10.95;;;8.80;;
77775;SDS011;66965;43.328;6.668;2023-02-18T13:17:58;12.27;;;8.30;;
77775;SDS011;66965;43.328;6.668;2023-02-18T13:20:41;10.95;;;7.95;;
77775;SDS011;66965;43.328;6.668;2023-02-18T13:23:15;10.20;;;7.40;;
77775;SDS011;66965;43.328;6.668;2023-02-18T13:25:51;12.50;;;8.35;;
77775;SDS011;66965;43.328;6.668;2023-02-18T13:28:28;12.85;;;8.10;;
77775;SDS011;66965;43.328;6.668;2023-02-18T13:41:39;10.27;;;8.00;;
77775;SDS011;66965;43.328;6.668;2023-02-18T13:44:07;13.98;;;9.48;;
77775;SDS011;66965;43.328;6.668;2023-02-18T13:46:46;13.77;;;8.45;;
77775;SDS011;66965;43.328;6.668;2023-02-18T13:49:23;14.35;;;8.48;;
77775;SDS011;66965;43.328;6.668;2023-02-18T13:51:51;14.20;;;9.27;;
77775;SDS011;66965;43.328;6.668;2023-02-18T13:56:57;14.73;;;8.15;;
77775;SDS011;66965;43.328;6.668;2023-02-18T13:59:40;13.52;;;8.98;;
77775;SDS011;66965;43.328;6.668;2023-02-18T14:12:40;9.90;;;7.75;;
77775;SDS011;66965;43.328;6.668;2023-02-18T14:17:55;11.35;;;7.50;;
77775;SDS011;66965;43.328;6.668;2023-02-18T14:31:03;9.73;;;7.38;;
77775;SDS011;66965;43.328;6.668;2023-02-18T14:33:51;9.00;;;7.25;;
77775;SDS011;66965;43.328;6.668;2023-02-18T14:39:29;13.82;;;7.68;;
77775;SDS011;66965;43.328;6.668;2023-02-18T14:47:35;12.13;;;6.50;;
77775;SDS011;66965;43.328;6.668;2023-02-18T14:50:24;11.60;;;6.55;;
77775;SDS011;66965;43.328;6.668;2023-02-18T14:52:53;10.13;;;5.90;;
77775;SDS011;66965;43.328;6.668;2023-02-18T14:55:24;8.05;;;6.00;;
77775;SDS011;66965;43.328;6.668;2023-02-18T14:57:55;10.73;;;6.70;;
77775;SDS011;66965;43.328;6.668;2023-02-18T15:02:56;9.65;;;6.28;;
77775;SDS011;66965;43.328;6.668;2023-02-18T15:05:28;10.15;;;6.85;;
77775;SDS011;66965;43.328;6.668;2023-02-18T15:07:56;9.70;;;5.65;;
77775;SDS011;66965;43.328;6.668;2023-02-18T15:10:42;9.88;;;7.95;;
77775;SDS011;66965;43.328;6.668;2023-02-18T15:13:30;8.88;;;6.03;;
77775;SDS011;66965;43.328;6.668;2023-02-18T15:16:05;11.38;;;7.47;;
77775;SDS011;66965;43.328;6.668;2023-02-18T15:21:03;12.80;;;7.07;;
77775;SDS011;66965;43.328;6.668;2023-02-18T15:23:30;11.80;;;6.90;;
77775;SDS011;66965;43.328;6.668;2023-02-18T15:25:59;11.63;;;7.43;;
77775;SDS011;66965;43.328;6.668;2023-02-18T15:28:27;10.80;;;7.10;;
77775;SDS011;66965;43.328;6.668;2023-02-18T15:30:57;8.80;;;6.97;;
77775;SDS011;66965;43.328;6.668;2023-02-18T15:33:24;10.93;;;7.47;;
77775;SDS011;66965;43.328;6.668;2023-02-18T15:35:50;13.88;;;6.80;;
77775;SDS011;66965;43.328;6.668;2023-02-18T15:38:17;12.55;;;7.10;;
77775;SDS011;66965;43.328;6.668;2023-02-18T15:40:48;11.02;;;6.47;;
77775;SDS011;66965;43.328;6.668;2023-02-18T15:43:20;11.95;;;6.85;;
77775;SDS011;66965;43.328;6.668;2023-02-18T15:45:48;10.35;;;7.40;;
77775;SDS011;66965;43.328;6.668;2023-02-18T15:50:50;12.70;;;7.80;;
77775;SDS011;66965;43.328;6.668;2023-02-18T15:53:18;11.93;;;7.25;;
77775;SDS011;66965;43.328;6.668;2023-02-18T15:55:46;11.32;;;7.18;;
77775;SDS011;66965;43.328;6.668;2023-02-18T15:58:15;12.20;;;7.65;;
77775;SDS011;66965;43.328;6.668;2023-02-18T16:00:53;11.32;;;7.65;;
77775;SDS011;66965;43.328;6.668;2023-02-18T16:03:22;10.10;;;6.93;;
77775;SDS011;66965;43.328;6.668;2023-02-18T16:05:49;12.93;;;7.13;;
77775;SDS011;66965;43.328;6.668;2023-02-18T16:08:31;11.73;;;7.50;;
77775;SDS011;66965;43.328;6.668;2023-02-18T16:10:59;11.30;;;7.57;;
77775;SDS011;66965;43.328;6.668;2023-02-18T16:13:27;10.43;;;7.55;;
77775;SDS011;66965;43.328;6.668;2023-02-18T16:15:55;11.13;;;7.70;;
77775;SDS011;66965;43.328;6.668;2023-02-18T16:20:58;14.55;;;8.25;;
77775;SDS011;66965;43.328;6.668;2023-02-18T16:23:42;11.82;;;8.23;;
77775;SDS011;66965;43.328;6.668;2023-02-18T16:26:21;13.90;;;8.98;;
77775;SDS011;66965;43.328;6.668;2023-02-18T16:29:24;11.32;;;7.90;;
77775;SDS011;66965;43.328;6.668;2023-02-18T16:32:05;15.80;;;9.32;;
77775;SDS011;66965;43.328;6.668;2023-02-18T16:34:31;13.68;;;8.68;;
77775;SDS011;66965;43.328;6.668;2023-02-18T16:36:57;15.00;;;9.35;;
77775;SDS011;66965;43.328;6.668;2023-02-18T16:39:41;14.63;;;8.95;;
77775;SDS011;66965;43.328;6.668;2023-02-18T16:42:10;12.75;;;8.20;;
77775;SDS011;66965;43.328;6.668;2023-02-18T16:44:37;11.88;;;8.43;;
77775;SDS011;66965;43.328;6.668;2023-02-18T16:47:03;14.07;;;9.52;;
77775;SDS011;66965;43.328;6.668;2023-02-18T16:49:29;14.15;;;10.10;;
77775;SDS011;66965;43.328;6.668;2023-02-18T16:54:21;16.25;;;8.95;;
77775;SDS011;66965;43.328;6.668;2023-02-18T16:56:47;12.32;;;8.73;;
77775;SDS011;66965;43.328;6.668;2023-02-18T16:59:12;12.32;;;9.00;;
77775;SDS011;66965;43.328;6.668;2023-02-18T17:01:39;13.50;;;9.40;;
77775;SDS011;66965;43.328;6.668;2023-02-18T17:04:12;11.80;;;8.00;;
77775;SDS011;66965;43.328;6.668;2023-02-18T17:06:39;11.48;;;8.73;;
77775;SDS011;66965;43.328;6.668;2023-02-18T17:09:10;13.98;;;9.45;;
77775;SDS011;66965;43.328;6.668;2023-02-18T17:11:41;16.40;;;9.15;;
77775;SDS011;66965;43.328;6.668;2023-02-18T17:14:12;12.93;;;9.13;;
77775;SDS011;66965;43.328;6.668;2023-02-18T17:16:39;13.93;;;9.35;;
77775;SDS011;66965;43.328;6.668;2023-02-18T17:19:05;14.10;;;9.85;;
77775;SDS011;66965;43.328;6.668;2023-02-18T17:21:30;16.30;;;9.98;;
77775;SDS011;66965;43.328;6.668;2023-02-18T17:23:55;15.63;;;9.10;;
77775;SDS011;66965;43.328;6.668;2023-02-18T17:26:22;11.73;;;8.13;;
77775;SDS011;66965;43.328;6.668;2023-02-18T17:28:50;14.00;;;9.45;;
77775;SDS011;66965;43.328;6.668;2023-02-18T17:31:17;11.90;;;9.55;;
77775;SDS011;66965;43.328;6.668;2023-02-18T17:33:45;13.63;;;8.77;;